Bordulac, North Dakota
Current Conditions -  °F | °C
As of 7:35 AM on Thursday 23 Oct 2014 (Local Time) from K46D Reporting Station
Clear Clear  
Wind Chill: 35°   Ceiling: Unl
Heat Index: 41°   Visibility: 10mi
Dew Point: 37°   Wind: 10mph
Humidity: 87%   Direction: 240°WSW
Pressure: 29.89"   Gusts: NA
Location:  47.4573°N, 99.0752°W
Report Text: K46D 231235Z AUTO 24009KT 10SM CLR 05/03 A2989 RMK AO2
Loading
Personal Weather Stations






























Interactive Weather Map
Tropical Storm Tracking
New forecast layout! Learn more

10-Day Weather Forecast

Advertisements
Track Severe Weather on mobile